Terminal Aerodrome Forecast
Issued by NWS Mt. Holly, NJ

Home | Current Version | Previous Version | Text Only | Print | Product List | Glossary On
Versions: 1 2 3 4 5 6 7 8 9 10 11 12 13 14 15 16 17 18 19 20 21 22 23 24 25 26 27 28 29
000
FTUS41 KPHI 241100 CCA
TAFPHL
TAF COR
KPHL 241157Z 2412/2518 18018G25KT P6SM SCT010 OVC035 WS020/20055KT
      TEMPO 2412/2415 OVC011
     FM241500 21014G24KT P6SM SCT008 OVC025
     FM241700 21016G28KT P6SM OVC030
     FM242000 21015G24KT P6SM SCT020 OVC050
     FM250000 22009KT P6SM OVC050=

USA.gov is the U.S. government's official web portal to all federal, state and local government web resources and services.